Time;durP1;ratioP1;P1;durP2;ratioP2;P2;SDS_P1;SDS_P2;PMS_P1;PMS_P2;Temp;Humidity;BMP_temperature;BMP_pressure;BME280_temperature;BME280_humidity;BME280_pressure;Samples;Min_cycle;Max_cycle;Signal;HPM_P1;HPM_P2
2022/06/26 00:00:10;;;;;;;11.40;4.95;;;15.40;87.20;;;;;;5102232;27;20483;-63
2022/06/26 00:02:37;;;;;;;11.20;4.68;;;15.40;87.20;;;;;;5098056;27;20024;-63
2022/06/26 00:05:04;;;;;;;14.70;5.00;;;15.40;87.10;;;;;;5106735;27;20020;-64
2022/06/26 00:07:30;;;;;;;9.75;4.05;;;15.40;87.30;;;;;;5099419;27;20424;-64
2022/06/26 00:09:57;;;;;;;16.33;4.97;;;15.40;87.20;;;;;;5101845;27;20027;-62
2022/06/26 00:12:23;;;;;;;16.52;5.45;;;15.40;87.20;;;;;;5106812;27;20047;-63
2022/06/26 00:14:50;;;;;;;15.15;5.15;;;15.40;87.30;;;;;;5102599;27;20035;-63
2022/06/26 00:17:16;;;;;;;11.38;4.28;;;15.30;87.20;;;;;;5104058;27;20022;-64
2022/06/26 00:19:43;;;;;;;17.58;6.25;;;15.30;87.30;;;;;;5100432;27;20028;-64
2022/06/26 00:22:09;;;;;;;11.00;4.68;;;15.30;87.30;;;;;;5097862;27;20020;-63
2022/06/26 00:24:37;;;;;;;11.00;4.88;;;15.30;87.40;;;;;;5101709;27;20063;-69
2022/06/26 00:27:06;;;;;;;14.82;5.72;;;15.30;87.40;;;;;;5099831;27;20027;-65
2022/06/26 00:29:33;;;;;;;15.07;5.07;;;15.30;87.50;;;;;;5108761;27;20456;-65
2022/06/26 00:32:01;;;;;;;17.52;6.68;;;15.20;87.50;;;;;;5099911;27;20147;-66
2022/06/26 00:34:28;;;;;;;19.25;5.85;;;15.30;87.70;;;;;;5094767;27;20394;-69
2022/06/26 00:36:55;;;;;;;22.83;5.97;;;15.30;87.70;;;;;;5102077;27;20016;-64
2022/06/26 00:39:22;;;;;;;19.23;5.85;;;15.30;87.70;;;;;;5101442;27;20062;-70
2022/06/26 00:41:48;;;;;;;16.75;5.53;;;15.20;87.60;;;;;;5102053;27;20097;-66
2022/06/26 00:44:21;;;;;;;17.95;6.85;;;15.30;87.70;;;;;;5101218;27;20019;-65
2022/06/26 00:46:48;;;;;;;18.52;6.72;;;15.20;87.60;;;;;;5104694;27;20031;-63
2022/06/26 00:49:15;;;;;;;19.27;5.82;;;15.20;87.70;;;;;;5098094;27;20056;-63
2022/06/26 00:51:45;;;;;;;26.50;7.45;;;15.20;87.60;;;;;;5098627;27;20023;-63
2022/06/26 00:54:12;;;;;;;15.70;6.15;;;15.20;87.90;;;;;;5105706;27;20535;-64
2022/06/26 00:56:39;;;;;;;23.88;8.15;;;15.20;88.10;;;;;;5100893;27;20462;-67
2022/06/26 00:59:05;;;;;;;15.95;6.60;;;15.20;88.30;;;;;;5102259;27;20115;-64
2022/06/26 01:01:34;;;;;;;14.60;6.68;;;15.20;88.20;;;;;;5104277;27;20077;-62
2022/06/26 01:04:01;;;;;;;19.15;7.63;;;15.20;88.20;;;;;;5098715;27;20030;-63
2022/06/26 01:06:29;;;;;;;20.80;8.30;;;15.20;88.20;;;;;;5097776;27;20026;-63
2022/06/26 01:08:59;;;;;;;22.13;6.95;;;15.20;88.20;;;;;;5099457;27;20458;-66
2022/06/26 01:11:26;;;;;;;21.75;6.72;;;15.20;88.30;;;;;;5096722;27;20114;-70
2022/06/26 01:13:55;;;;;;;18.08;6.75;;;15.20;88.30;;;;;;5104959;27;20011;-70
2022/06/26 01:16:24;;;;;;;24.00;6.82;;;15.10;88.40;;;;;;5101999;27;20016;-68
2022/06/26 01:18:54;;;;;;;12.70;6.45;;;15.10;88.50;;;;;;5099677;27;20525;-71
2022/06/26 01:21:23;;;;;;;20.33;7.53;;;15.10;88.60;;;;;;5104998;28;20027;-65
2022/06/26 01:23:51;;;;;;;22.00;8.57;;;15.10;88.70;;;;;;5103514;28;20016;-71
2022/06/26 01:26:18;;;;;;;25.70;9.27;;;15.10;88.60;;;;;;5101599;27;20016;-72
2022/06/26 01:28:45;;;;;;;18.23;7.22;;;15.10;88.60;;;;;;5098160;28;20024;-68
2022/06/26 01:31:12;;;;;;;16.80;7.30;;;15.10;88.70;;;;;;5108480;28;20035;-71
2022/06/26 01:33:38;;;;;;;18.80;7.70;;;15.10;88.70;;;;;;5094714;28;20020;-69
2022/06/26 01:36:06;;;;;;;19.67;8.18;;;15.10;88.80;;;;;;5106461;28;20116;-71
2022/06/26 01:38:32;;;;;;;20.95;8.18;;;15.10;88.80;;;;;;5103772;28;20146;-63
2022/06/26 01:40:59;;;;;;;18.08;6.50;;;15.10;88.90;;;;;;5103869;28;20035;-71
2022/06/26 01:43:31;;;;;;;23.67;8.45;;;15.10;89.30;;;;;;5099682;28;20024;-70
2022/06/26 01:45:58;;;;;;;22.63;7.68;;;15.10;89.90;;;;;;5103635;28;20024;-66
2022/06/26 01:48:26;;;;;;;19.33;6.47;;;15.10;90.00;;;;;;5102073;28;20016;-67
2022/06/26 01:50:55;;;;;;;18.08;6.43;;;15.20;90.10;;;;;;5101960;28;20377;-69
2022/06/26 01:53:22;;;;;;;22.77;6.32;;;15.10;90.20;;;;;;5105030;28;20061;-67
2022/06/26 01:55:49;;;;;;;16.27;5.53;;;15.10;90.20;;;;;;5100373;28;20027;-71
2022/06/26 01:58:15;;;;;;;27.60;7.38;;;15.20;90.20;;;;;;5101659;28;20497;-70
2022/06/26 02:00:43;;;;;;;18.00;5.60;;;15.10;90.20;;;;;;5100707;28;20020;-71
2022/06/26 02:03:11;;;;;;;14.35;5.78;;;15.10;90.20;;;;;;5105435;28;20016;-73
2022/06/26 02:05:37;;;;;;;22.63;5.25;;;15.10;90.20;;;;;;5103058;28;20024;-68
2022/06/26 02:08:04;;;;;;;14.45;5.43;;;15.10;90.20;;;;;;5095205;28;20838;-70
2022/06/26 02:16:26;;;;;;;15.52;4.78;;;15.10;90.10;;;;;;5073419;28;20032;-70
2022/06/26 02:18:55;;;;;;;19.90;5.45;;;15.10;90.00;;;;;;5067181;28;20118;-69
2022/06/26 02:21:24;;;;;;;17.17;4.88;;;15.10;90.00;;;;;;5084738;27;20169;-70
2022/06/26 02:23:53;;;;;;;14.15;6.80;;;15.10;90.00;;;;;;5106946;27;20095;-68
2022/06/26 02:26:21;;;;;;;20.55;5.85;;;15.10;89.90;;;;;;5101634;27;20024;-69
2022/06/26 02:28:48;;;;;;;42.10;22.05;;;15.10;90.10;;;;;;5100962;27;20017;-71
2022/06/26 02:31:14;;;;;;;46.97;30.50;;;15.10;90.20;;;;;;5105755;27;20077;-64
2022/06/26 02:33:41;;;;;;;34.63;17.10;;;15.10;90.20;;;;;;5104279;27;20463;-64
2022/06/26 02:36:08;;;;;;;23.80;12.80;;;15.10;90.10;;;;;;5108829;27;20010;-69
2022/06/26 02:38:35;;;;;;;18.23;10.43;;;15.10;90.00;;;;;;5101316;27;20146;-64
2022/06/26 02:41:02;;;;;;;25.50;12.90;;;15.00;89.70;;;;;;5105297;27;20016;-68
2022/06/26 02:43:29;;;;;;;34.05;18.48;;;15.00;89.40;;;;;;5108135;27;20390;-68
2022/06/26 02:45:56;;;;;;;43.67;26.38;;;15.00;89.30;;;;;;5103069;27;20019;-68
2022/06/26 02:48:23;;;;;;;57.22;29.90;;;15.00;89.20;;;;;;5101352;27;20036;-69
2022/06/26 02:50:49;;;;;;;63.97;30.17;;;15.00;89.10;;;;;;5104995;27;20031;-68
2022/06/26 02:53:17;;;;;;;58.45;29.48;;;15.00;89.00;;;;;;5104211;27;20102;-65
2022/06/26 02:55:43;;;;;;;44.58;24.48;;;15.00;89.00;;;;;;5101027;27;20052;-67
2022/06/26 02:58:10;;;;;;;34.05;19.25;;;15.00;88.90;;;;;;5101764;27;20414;-66
2022/06/26 03:00:37;;;;;;;34.15;17.42;;;14.90;88.90;;;;;;5104500;27;20066;-67
2022/06/26 03:03:03;;;;;;;23.73;13.10;;;15.00;88.90;;;;;;5110249;27;20103;-66
2022/06/26 03:05:31;;;;;;;26.17;11.77;;;14.90;89.60;;;;;;5100776;27;20016;-69
2022/06/26 03:07:57;;;;;;;28.65;9.93;;;15.00;89.10;;;;;;5105033;27;20028;-68
2022/06/26 03:10:24;;;;;;;12.70;7.72;;;14.90;89.00;;;;;;5099040;27;20077;-65
2022/06/26 03:12:51;;;;;;;17.83;7.85;;;14.90;89.10;;;;;;5103376;27;20022;-65
2022/06/26 03:15:18;;;;;;;16.35;6.90;;;14.90;89.10;;;;;;5098524;27;20099;-64
2022/06/26 03:17:46;;;;;;;17.38;6.53;;;14.90;89.10;;;;;;5098789;27;20032;-66
2022/06/26 03:20:16;;;;;;;14.00;6.13;;;14.90;89.20;;;;;;5105375;27;20415;-63
2022/06/26 03:22:43;;;;;;;13.82;5.68;;;14.90;89.10;;;;;;5101520;27;20020;-64
2022/06/26 03:25:10;;;;;;;13.57;5.32;;;14.90;89.10;;;;;;5104583;27;20102;-64
2022/06/26 03:27:36;;;;;;;11.57;5.05;;;14.90;89.00;;;;;;5099956;28;20462;-65
2022/06/26 03:30:07;;;;;;;12.50;4.70;;;14.90;89.10;;;;;;5106813;27;20044;-65
2022/06/26 03:32:33;;;;;;;18.60;6.10;;;14.90;89.10;;;;;;5101258;27;20020;-66
2022/06/26 03:35:00;;;;;;;8.55;3.72;;;14.90;89.20;;;;;;5107306;27;20102;-62
2022/06/26 03:37:27;;;;;;;41.33;21.77;;;14.90;89.30;;;;;;5101113;27;20027;-62
2022/06/26 03:39:53;;;;;;;38.60;20.25;;;14.90;89.50;;;;;;5101692;27;20059;-63
2022/06/26 03:42:20;;;;;;;28.42;13.35;;;14.90;89.80;;;;;;5105402;27;20501;-63
2022/06/26 03:44:46;;;;;;;19.05;8.50;;;14.90;89.70;;;;;;5104548;27;20020;-63
2022/06/26 03:47:13;;;;;;;13.90;6.05;;;14.90;90.00;;;;;;5103548;27;20562;-63
2022/06/26 03:49:39;;;;;;;19.15;5.55;;;14.90;90.00;;;;;;5094029;27;20030;-63
2022/06/26 03:52:06;;;;;;;29.67;5.80;;;14.90;90.10;;;;;;5108082;27;20028;-63
2022/06/26 03:54:34;;;;;;;14.82;4.30;;;14.90;90.20;;;;;;5104882;27;20442;-62
2022/06/26 03:57:01;;;;;;;11.48;4.65;;;14.90;90.00;;;;;;5103766;27;20016;-63
2022/06/26 03:59:28;;;;;;;13.68;4.65;;;14.90;89.60;;;;;;5102359;27;20035;-63
2022/06/26 04:01:54;;;;;;;7.47;4.13;;;14.90;89.10;;;;;;5099497;27;20080;-63
2022/06/26 04:04:21;;;;;;;14.73;3.53;;;14.90;88.60;;;;;;5101719;27;20039;-63
2022/06/26 06:24:06;;;;;;;23.02;13.57;;;14.00;91.50;;;;;;5111665;27;20409;-70
2022/06/26 06:26:33;;;;;;;15.25;9.65;;;14.30;92.10;;;;;;5116524;28;20030;-73
2022/06/26 06:28:59;;;;;;;15.15;5.57;;;14.30;92.00;;;;;;5114053;28;20184;-74
2022/06/26 06:31:26;;;;;;;9.90;4.63;;;14.40;92.00;;;;;;5118614;28;20030;-73
2022/06/26 06:33:53;;;;;;;15.80;3.55;;;14.40;91.90;;;;;;5115868;27;20105;-73
2022/06/26 06:36:23;;;;;;;8.23;3.53;;;14.40;91.80;;;;;;5115021;28;20036;-72
2022/06/26 06:38:50;;;;;;;11.23;3.08;;;14.50;91.70;;;;;;5117759;27;20019;-71
2022/06/26 06:41:17;;;;;;;9.32;3.78;;;14.50;91.60;;;;;;5121927;28;20080;-70
2022/06/26 06:43:46;;;;;;;17.17;2.90;;;14.50;91.60;;;;;;5117573;27;20047;-72
2022/06/26 06:46:13;;;;;;;13.95;3.33;;;14.50;91.50;;;;;;5121997;27;20032;-71
2022/06/26 06:48:40;;;;;;;12.90;3.83;;;14.50;91.60;;;;;;5121842;28;20056;-72
2022/06/26 06:51:06;;;;;;;18.52;3.65;;;14.50;91.70;;;;;;5119937;28;20011;-72
2022/06/26 06:53:33;;;;;;;13.45;3.63;;;14.60;91.80;;;;;;5112667;28;20038;-72
2022/06/26 06:55:59;;;;;;;10.30;5.10;;;14.60;91.70;;;;;;5118774;27;20012;-72
2022/06/26 06:58:26;;;;;;;18.70;5.30;;;14.60;91.70;;;;;;5117033;28;20023;-73
2022/06/26 07:00:52;;;;;;;15.30;4.57;;;14.70;91.70;;;;;;5115925;28;20051;-72
2022/06/26 07:03:19;;;;;;;15.73;4.43;;;14.70;91.70;;;;;;5118583;27;20347;-72
2022/06/26 07:05:45;;;;;;;14.68;3.90;;;14.70;91.80;;;;;;5116613;28;20019;-72
2022/06/26 07:08:12;;;;;;;19.15;5.93;;;14.70;91.80;;;;;;5120739;28;20027;-72
2022/06/26 07:10:38;;;;;;;19.95;4.25;;;14.70;91.80;;;;;;5119347;27;20028;-70
2022/06/26 07:13:05;;;;;;;21.48;4.88;;;14.70;91.90;;;;;;5113697;27;20028;-71
2022/06/26 07:15:31;;;;;;;16.85;3.55;;;14.70;91.90;;;;;;5114526;28;20016;-73
2022/06/26 07:17:58;;;;;;;17.42;4.63;;;14.70;92.00;;;;;;5118476;27;20023;-70
2022/06/26 07:20:25;;;;;;;17.27;8.48;;;14.70;91.90;;;;;;5113281;27;20055;-73
2022/06/26 07:22:51;;;;;;;20.63;10.05;;;14.70;92.00;;;;;;5119372;27;20063;-73
2022/06/26 07:25:19;;;;;;;19.73;7.45;;;14.70;92.10;;;;;;5109474;28;20043;-71
2022/06/26 07:27:46;;;;;;;10.07;5.65;;;14.80;92.20;;;;;;5103128;28;20056;-69
2022/06/26 07:30:16;;;;;;;24.98;5.35;;;14.80;92.20;;;;;;5102587;28;20027;-69
2022/06/26 07:32:44;;;;;;;24.65;5.05;;;14.80;92.20;;;;;;5110095;28;20032;-69
2022/06/26 07:35:11;;;;;;;17.25;4.05;;;14.80;92.30;;;;;;5108452;28;20129;-70
2022/06/26 07:37:39;;;;;;;14.40;3.63;;;14.80;92.30;;;;;;5107679;28;20036;-70
2022/06/26 07:40:06;;;;;;;15.05;4.35;;;14.80;92.40;;;;;;5105164;28;20021;-70
2022/06/26 07:42:33;;;;;;;9.32;3.95;;;14.90;92.40;;;;;;5106863;28;20032;-71
2022/06/26 07:45:00;;;;;;;8.57;3.58;;;14.90;92.50;;;;;;5102311;28;20020;-69
2022/06/26 07:47:26;;;;;;;9.77;3.47;;;14.90;92.60;;;;;;5104075;28;20431;-69
2022/06/26 07:49:53;;;;;;;10.95;3.17;;;14.90;92.50;;;;;;5103812;28;20083;-69
2022/06/26 07:52:19;;;;;;;13.40;3.17;;;14.90;92.50;;;;;;5108830;28;20050;-70
2022/06/26 07:54:46;;;;;;;14.68;4.50;;;15.00;92.50;;;;;;5104586;28;20120;-70
2022/06/26 07:57:12;;;;;;;13.23;5.00;;;15.00;92.50;;;;;;5107791;28;20032;-70
2022/06/26 07:59:39;;;;;;;15.90;7.07;;;15.00;92.60;;;;;;5105105;28;20476;-69
2022/06/26 08:02:05;;;;;;;11.40;4.95;;;15.00;92.70;;;;;;5109400;27;20026;-69
2022/06/26 08:04:32;;;;;;;11.23;4.22;;;15.10;92.70;;;;;;5108193;28;20032;-70
2022/06/26 08:06:58;;;;;;;12.73;3.38;;;15.10;92.70;;;;;;5104829;28;20043;-69
2022/06/26 08:09:25;;;;;;;17.42;4.55;;;15.10;92.60;;;;;;5102435;28;20028;-69
2022/06/26 08:11:51;;;;;;;11.93;4.20;;;15.10;92.50;;;;;;5098570;28;20719;-69
2022/06/26 08:14:18;;;;;;;15.00;4.65;;;15.10;92.50;;;;;;5099281;28;20048;-69
2022/06/26 08:16:45;;;;;;;11.00;4.00;;;15.10;92.40;;;;;;5106781;28;20059;-69
2022/06/26 08:19:11;;;;;;;9.88;4.05;;;15.20;92.40;;;;;;5101281;28;20096;-68
2022/06/26 08:24:22;;;;;;;11.23;2.50;;;15.20;92.20;;;;;;5106099;28;20053;-68
2022/06/26 08:26:49;;;;;;;12.30;4.68;;;15.30;92.00;;;;;;5104897;28;20027;-70
2022/06/26 08:29:15;;;;;;;13.10;3.92;;;15.20;91.90;;;;;;5101533;28;20024;-68
2022/06/26 08:31:42;;;;;;;13.18;2.95;;;15.30;91.80;;;;;;5105948;28;20512;-69
2022/06/26 08:34:08;;;;;;;11.52;3.13;;;15.30;91.80;;;;;;5105753;27;20464;-70
2022/06/26 08:36:35;;;;;;;9.70;2.70;;;15.30;91.70;;;;;;5107344;28;20024;-72
2022/06/26 08:39:01;;;;;;;11.40;2.55;;;15.30;91.70;;;;;;5105003;28;20127;-72
2022/06/26 08:41:29;;;;;;;12.77;3.00;;;15.30;91.60;;;;;;5108880;28;20035;-71
2022/06/26 08:44:00;;;;;;;4.85;2.60;;;15.30;91.60;;;;;;5104665;28;20450;-71
2022/06/26 08:46:28;;;;;;;17.52;3.90;;;15.40;91.60;;;;;;5108829;28;20019;-71
2022/06/26 08:49:00;;;;;;;8.23;3.25;;;15.40;91.50;;;;;;5102067;28;20024;-71
2022/06/26 08:51:27;;;;;;;6.35;2.58;;;15.40;91.40;;;;;;5096252;28;20068;-71
2022/06/26 08:53:54;;;;;;;8.15;2.72;;;15.40;91.30;;;;;;5099439;28;20023;-71
2022/06/26 08:56:21;;;;;;;7.00;2.53;;;15.50;91.20;;;;;;5101527;28;20034;-71
2022/06/26 08:58:47;;;;;;;8.32;3.33;;;15.50;91.20;;;;;;5101326;28;20032;-72
2022/06/26 09:01:14;;;;;;;8.00;2.88;;;15.50;91.10;;;;;;5104898;28;20055;-71
2022/06/26 09:03:41;;;;;;;12.95;2.30;;;15.50;91.00;;;;;;5103447;28;20121;-71
2022/06/26 09:06:07;;;;;;;14.45;2.53;;;15.60;90.90;;;;;;5096814;28;20020;-71
2022/06/26 09:08:44;;;;;;;9.40;3.17;;;15.60;90.70;;;;;;5096810;28;20023;-71
2022/06/26 09:11:11;;;;;;;24.05;5.00;;;15.70;90.50;;;;;;5097998;28;20028;-71
2022/06/26 09:13:40;;;;;;;6.25;2.60;;;15.70;90.30;;;;;;5098032;28;20058;-71
2022/06/26 09:16:07;;;;;;;9.23;2.67;;;15.80;90.20;;;;;;5097386;28;20069;-72
2022/06/26 09:18:38;;;;;;;11.63;2.72;;;15.80;90.10;;;;;;5099156;28;20016;-72
2022/06/26 09:21:07;;;;;;;7.53;2.65;;;15.80;89.90;;;;;;5102525;28;20023;-71
2022/06/26 09:23:36;;;;;;;8.77;2.63;;;15.90;89.60;;;;;;5102899;28;20051;-71
2022/06/26 09:26:07;;;;;;;6.22;1.88;;;15.90;89.20;;;;;;5104658;28;20027;-72
2022/06/26 09:28:34;;;;;;;5.90;2.33;;;16.00;89.10;;;;;;5102173;28;20478;-71
2022/06/26 09:31:06;;;;;;;9.57;2.33;;;16.00;89.00;;;;;;5104076;28;20020;-71
2022/06/26 09:33:34;;;;;;;8.02;3.33;;;16.00;88.70;;;;;;5098763;28;20020;-72
2022/06/26 09:36:03;;;;;;;7.82;3.70;;;16.00;88.00;;;;;;5100511;28;20095;-72
2022/06/26 09:38:32;;;;;;;15.70;5.45;;;16.10;87.60;;;;;;5099911;28;20034;-71
2022/06/26 09:41:03;;;;;;;8.27;4.05;;;16.10;87.40;;;;;;5097188;28;20020;-71
2022/06/26 09:43:35;;;;;;;13.48;5.95;;;16.10;87.10;;;;;;5103691;28;20016;-71
2022/06/26 09:46:04;;;;;;;10.02;5.50;;;16.20;86.60;;;;;;5105419;28;20031;-71
2022/06/26 09:48:31;;;;;;;9.45;4.22;;;16.20;86.50;;;;;;5105653;28;20048;-71
2022/06/26 09:50:58;;;;;;;9.07;2.78;;;16.20;86.20;;;;;;5102364;28;20023;-71
2022/06/26 09:53:27;;;;;;;8.57;3.30;;;16.30;85.80;;;;;;5101733;28;20035;-72
2022/06/26 09:55:55;;;;;;;8.73;3.33;;;16.20;85.20;;;;;;5097973;28;20073;-71
2022/06/26 09:58:23;;;;;;;10.05;2.95;;;16.30;85.10;;;;;;5098010;28;20076;-72
2022/06/26 10:06:28;;;;;;;7.07;4.50;;;16.40;85.20;;;;;;5100372;28;20127;-72
2022/06/26 10:09:04;;;;;;;10.73;5.57;;;16.50;85.20;;;;;;5105177;28;20580;-72
2022/06/26 10:11:32;;;;;;;11.90;4.53;;;16.50;85.10;;;;;;5106352;28;20031;-72
2022/06/26 10:14:07;;;;;;;13.95;3.78;;;16.50;84.80;;;;;;5105425;28;20024;-72
2022/06/26 10:16:45;;;;;;;6.78;3.08;;;16.60;84.50;;;;;;5108041;28;20050;-71
2022/06/26 10:19:19;;;;;;;4.45;2.33;;;16.60;84.10;;;;;;5103549;28;20051;-72
2022/06/26 10:21:47;;;;;;;6.53;2.33;;;16.60;83.40;;;;;;5105320;28;20019;-72
2022/06/26 10:24:15;;;;;;;4.88;1.98;;;16.70;82.90;;;;;;5102601;28;20023;-71
2022/06/26 10:26:55;;;;;;;6.03;1.38;;;16.70;82.50;;;;;;5103084;28;20106;-71
2022/06/26 10:29:33;;;;;;;8.38;2.05;;;16.70;82.10;;;;;;5100456;28;20117;-72
2022/06/26 10:32:00;;;;;;;3.15;1.55;;;16.80;82.00;;;;;;5099919;28;20047;-72
2022/06/26 10:34:27;;;;;;;3.45;1.08;;;16.80;82.00;;;;;;5105503;28;20095;-71
2022/06/26 10:37:14;;;;;;;10.00;2.97;;;16.80;82.00;;;;;;5106427;28;20127;-72
2022/06/26 10:39:45;;;;;;;6.85;1.58;;;16.80;82.00;;;;;;5100525;28;20028;-71
2022/06/26 10:45:11;;;;;;;9.50;1.88;;;16.90;82.20;;;;;;5100332;28;20042;-73
2022/06/26 10:47:44;;;;;;;7.63;1.73;;;16.90;82.20;;;;;;5103579;28;20351;-71
2022/06/26 10:50:29;;;;;;;5.32;1.38;;;17.00;82.30;;;;;;5102191;28;20653;-71
2022/06/26 10:53:12;;;;;;;6.10;1.43;;;17.10;82.30;;;;;;5106090;28;20405;-72
2022/06/26 10:55:40;;;;;;;4.40;1.83;;;17.10;82.30;;;;;;5100598;28;20279;-71
2022/06/26 10:58:07;;;;;;;4.43;1.77;;;17.10;82.30;;;;;;5102946;28;20518;-72
2022/06/26 11:00:33;;;;;;;2.38;1.75;;;17.10;82.30;;;;;;5109985;28;20027;-72
2022/06/26 11:03:00;;;;;;;4.95;1.23;;;17.20;82.40;;;;;;5105509;28;20406;-71
2022/06/26 11:05:28;;;;;;;5.70;1.88;;;17.20;82.50;;;;;;5106705;28;20492;-72
2022/06/26 11:07:55;;;;;;;10.95;2.47;;;17.30;82.60;;;;;;5106035;28;20019;-72
2022/06/26 11:10:27;;;;;;;16.05;2.67;;;17.30;82.80;;;;;;5107659;28;20108;-69
2022/06/26 11:12:54;;;;;;;28.85;5.75;;;17.30;83.00;;;;;;5103869;27;20039;-71
2022/06/26 11:15:26;;;;;;;23.00;3.67;;;17.40;82.90;;;;;;5101729;28;20028;-70
2022/06/26 11:18:01;;;;;;;15.90;2.38;;;17.40;83.10;;;;;;5107531;28;20024;-70
2022/06/26 11:20:51;;;;;;;10.52;1.52;;;17.40;82.90;;;;;;5110989;28;20035;-72
2022/06/26 11:23:22;;;;;;;5.32;1.33;;;17.50;82.40;;;;;;5103652;28;20105;-72
2022/06/26 11:25:54;;;;;;;6.50;1.65;;;17.50;82.20;;;;;;5101717;28;20114;-70
2022/06/26 11:28:20;;;;;;;4.35;1.80;;;17.60;82.00;;;;;;5099863;28;20020;-71
2022/06/26 11:30:48;;;;;;;23.50;14.35;;;17.60;81.60;;;;;;5104458;28;20577;-71
2022/06/26 11:33:24;;;;;;;13.23;7.85;;;17.60;82.40;;;;;;5106346;28;20126;-69
2022/06/26 11:35:50;;;;;;;9.40;4.60;;;17.60;82.30;;;;;;5098418;28;20028;-69
2022/06/26 11:38:21;;;;;;;8.52;4.55;;;17.70;82.60;;;;;;5098326;28;20039;-69
2022/06/26 11:40:48;;;;;;;8.48;2.92;;;17.80;83.10;;;;;;5099311;28;20027;-70
2022/06/26 11:43:16;;;;;;;15.82;2.40;;;17.80;83.00;;;;;;5098944;28;20027;-69
2022/06/26 11:45:43;;;;;;;7.20;2.30;;;17.90;83.10;;;;;;5105819;28;20429;-69
2022/06/26 11:48:18;;;;;;;5.43;1.83;;;17.90;82.70;;;;;;5100919;28;20385;-69
2022/06/26 11:50:50;;;;;;;5.07;2.33;;;17.90;82.20;;;;;;5096432;28;20031;-70
2022/06/26 11:53:34;;;;;;;6.88;2.30;;;17.90;81.80;;;;;;5102235;28;20039;-70
2022/06/26 11:56:04;;;;;;;7.05;1.58;;;17.90;81.00;;;;;;5098951;28;20020;-72
2022/06/26 11:58:33;;;;;;;6.38;1.85;;;18.00;80.80;;;;;;5106808;28;20039;-70
2022/06/26 12:01:08;;;;;;;3.88;1.98;;;18.00;80.60;;;;;;5101097;28;20140;-70
2022/06/26 12:03:37;;;;;;;15.18;2.08;;;18.00;80.50;;;;;;5101145;28;20028;-70
2022/06/26 12:06:05;;;;;;;6.18;1.95;;;18.00;80.80;;;;;;5101732;28;20418;-69
2022/06/26 12:08:31;;;;;;;4.15;1.77;;;18.10;80.90;;;;;;5097694;28;20035;-68
2022/06/26 12:11:00;;;;;;;6.93;1.88;;;18.10;81.10;;;;;;5098953;28;20024;-68
2022/06/26 14:26:28;;;;;;;15.93;5.30;;;18.20;83.30;;;;;;5077701;28;20123;-70
2022/06/26 14:28:55;;;;;;;14.30;5.45;;;18.30;83.20;;;;;;5076619;28;20666;-70
2022/06/26 14:31:22;;;;;;;42.13;22.27;;;18.20;83.10;;;;;;5067629;28;20032;-70
2022/06/26 14:33:48;;;;;;;28.55;12.88;;;18.30;83.10;;;;;;5056217;28;21077;-71
2022/06/26 14:36:16;;;;;;;56.92;38.35;;;18.30;82.70;;;;;;5059987;28;20615;-71
2022/06/26 14:38:43;;;;;;;36.25;26.50;;;18.30;82.80;;;;;;5079182;28;20210;-73
2022/06/26 14:41:10;;;;;;;29.48;18.67;;;18.30;82.80;;;;;;5072819;28;20024;-69
2022/06/26 14:43:37;;;;;;;22.35;14.45;;;18.30;82.40;;;;;;5060679;28;20024;-72
2022/06/26 14:46:03;;;;;;;19.10;9.65;;;18.30;82.30;;;;;;5075891;28;20043;-70
2022/06/26 14:48:30;;;;;;;14.00;8.95;;;18.20;82.10;;;;;;5079471;28;20467;-70
2022/06/26 14:50:57;;;;;;;15.45;7.18;;;18.20;82.10;;;;;;5077004;28;20121;-69
2022/06/26 14:53:24;;;;;;;13.60;6.78;;;18.20;82.10;;;;;;5078249;28;20024;-72
2022/06/26 14:55:52;;;;;;;8.93;5.13;;;18.10;82.10;;;;;;5078078;28;20021;-69
2022/06/26 14:58:25;;;;;;;18.70;5.32;;;18.10;82.20;;;;;;5081144;28;20066;-72
2022/06/26 15:00:55;;;;;;;18.02;7.90;;;18.10;82.70;;;;;;5078720;28;20040;-72
2022/06/26 15:03:22;;;;;;;12.85;6.80;;;18.00;82.70;;;;;;5072097;28;20424;-69
2022/06/26 15:05:49;;;;;;;11.15;5.85;;;18.00;82.60;;;;;;5075364;28;20033;-70
2022/06/26 15:08:15;;;;;;;13.50;6.65;;;18.00;82.60;;;;;;5077184;28;20017;-70
2022/06/26 15:10:42;;;;;;;9.60;5.47;;;17.90;82.60;;;;;;5077431;28;20022;-70
2022/06/26 15:13:08;;;;;;;16.05;5.32;;;17.90;82.60;;;;;;5074498;28;20032;-70
2022/06/26 15:15:35;;;;;;;9.77;4.55;;;17.90;82.80;;;;;;5074582;28;20073;-70
2022/06/26 15:18:01;;;;;;;16.23;5.45;;;17.90;82.90;;;;;;5077757;28;20028;-72
2022/06/26 15:20:28;;;;;;;11.40;4.95;;;17.80;82.90;;;;;;5080501;28;20016;-70
2022/06/26 15:22:55;;;;;;;19.08;5.13;;;17.80;83.00;;;;;;5074291;28;20052;-70
2022/06/26 15:25:23;;;;;;;15.02;5.63;;;17.80;83.10;;;;;;5064239;28;20081;-70
2022/06/26 15:27:49;;;;;;;9.60;4.45;;;17.80;83.20;;;;;;5065184;28;20063;-70
2022/06/26 15:30:16;;;;;;;15.32;5.00;;;17.80;83.40;;;;;;5065625;28;20020;-71
2022/06/26 15:32:43;;;;;;;14.23;5.35;;;17.70;83.50;;;;;;5066466;28;20032;-70
2022/06/26 15:35:09;;;;;;;10.02;4.93;;;17.60;83.60;;;;;;5064514;28;20025;-71
2022/06/26 15:37:36;;;;;;;12.75;6.60;;;17.70;83.80;;;;;;5066235;28;20024;-71
2022/06/26 15:40:03;;;;;;;11.00;4.95;;;17.60;84.20;;;;;;5067210;28;20467;-71
2022/06/26 15:42:30;;;;;;;12.10;5.78;;;17.60;84.20;;;;;;5067818;28;20024;-71
2022/06/26 15:44:57;;;;;;;28.13;7.20;;;17.60;84.40;;;;;;5062376;28;20479;-72
2022/06/26 15:47:23;;;;;;;21.58;6.97;;;17.50;84.50;;;;;;5063985;28;20040;-70
2022/06/26 15:49:49;;;;;;;41.65;8.70;;;17.50;84.90;;;;;;5062764;28;20028;-71
2022/06/26 15:52:16;;;;;;;15.75;6.97;;;17.50;85.20;;;;;;5066833;28;20036;-70
2022/06/26 15:54:43;;;;;;;14.93;7.47;;;17.50;85.50;;;;;;5066663;28;20037;-70
2022/06/26 15:57:09;;;;;;;15.65;10.07;;;17.50;85.70;;;;;;5066978;28;20112;-71
2022/06/26 15:59:36;;;;;;;13.60;9.63;;;17.50;85.80;;;;;;5066317;28;20028;-70
2022/06/26 16:02:02;;;;;;;17.95;10.48;;;17.40;85.80;;;;;;5066020;28;20020;-71
2022/06/26 16:04:29;;;;;;;17.10;8.38;;;17.40;85.90;;;;;;5065618;28;20020;-71
2022/06/26 16:06:56;;;;;;;16.25;8.95;;;17.40;86.10;;;;;;5062803;28;20563;-71
2022/06/26 16:09:23;;;;;;;16.30;6.57;;;17.40;86.10;;;;;;5065189;28;20079;-71
2022/06/26 16:11:50;;;;;;;16.15;7.53;;;17.30;86.20;;;;;;5064927;28;20033;-71
2022/06/26 16:14:17;;;;;;;13.13;7.57;;;17.30;86.30;;;;;;5060602;28;20016;-73
2022/06/26 16:16:44;;;;;;;26.23;17.33;;;17.30;86.40;;;;;;5048021;28;20023;-74
2022/06/26 16:19:11;;;;;;;24.80;13.98;;;17.30;86.50;;;;;;5066326;28;20048;-73
2022/06/26 16:21:38;;;;;;;20.98;12.07;;;17.30;86.60;;;;;;5065512;28;20020;-72
2022/06/26 16:26:49;;;;;;;20.75;11.38;;;17.30;86.70;;;;;;5064539;28;20146;-73
2022/06/26 16:29:16;;;;;;;23.75;11.65;;;17.20;86.60;;;;;;5061282;28;20029;-71
2022/06/26 16:31:42;;;;;;;17.20;10.38;;;17.20;86.80;;;;;;5060522;28;20067;-73
2022/06/26 16:34:09;;;;;;;20.10;12.77;;;17.20;86.80;;;;;;5058802;28;20058;-72
2022/06/26 16:36:35;;;;;;;22.50;12.13;;;17.20;86.90;;;;;;5062794;28;20475;-72
2022/06/26 16:39:02;;;;;;;24.40;14.07;;;17.20;86.90;;;;;;5066282;28;20114;-72
2022/06/26 16:41:28;;;;;;;24.60;16.60;;;17.20;86.90;;;;;;5062550;28;20017;-72
2022/06/26 16:43:55;;;;;;;28.80;16.17;;;17.20;86.90;;;;;;5064389;28;20032;-73
2022/06/26 16:46:22;;;;;;;31.25;16.02;;;17.10;86.90;;;;;;5066939;28;20062;-73
2022/06/26 16:48:49;;;;;;;25.27;13.90;;;17.10;86.90;;;;;;5064033;28;20021;-73
2022/06/26 16:51:16;;;;;;;27.75;15.00;;;17.10;86.90;;;;;;5062998;28;20040;-74
2022/06/26 16:53:43;;;;;;;20.25;12.45;;;17.10;86.70;;;;;;5039904;28;20060;-73
2022/06/26 16:56:10;;;;;;;22.60;13.45;;;17.00;86.70;;;;;;5064141;28;20021;-73
2022/06/26 16:58:36;;;;;;;27.75;12.95;;;17.10;86.70;;;;;;5063845;28;20027;-73
2022/06/26 17:01:15;;;;;;;24.80;12.57;;;17.10;86.70;;;;;;5062963;28;20029;-73
2022/06/26 17:03:42;;;;;;;20.02;12.95;;;17.10;86.60;;;;;;5040846;28;20043;-72
2022/06/26 17:06:29;;;;;;;18.35;10.95;;;17.00;86.60;;;;;;5043000;28;20028;-72
2022/06/26 17:08:56;;;;;;;34.88;14.20;;;17.00;86.70;;;;;;5061674;28;20017;-75
2022/06/26 17:11:23;;;;;;;29.90;18.55;;;17.00;86.80;;;;;;5065169;28;20422;-72
2022/06/26 17:13:49;;;;;;;24.55;16.02;;;17.00;87.00;;;;;;5059934;28;20024;-73
2022/06/26 17:16:17;;;;;;;24.95;13.13;;;17.00;87.00;;;;;;5062731;28;20024;-73
2022/06/26 17:18:46;;;;;;;26.85;13.52;;;17.00;87.60;;;;;;5059553;28;20017;-74
2022/06/26 17:21:22;;;;;;;24.90;11.48;;;16.90;86.90;;;;;;5063805;28;20070;-71
2022/06/26 17:23:49;;;;;;;23.65;11.88;;;16.90;86.80;;;;;;5042075;28;20407;-74
2022/06/26 17:26:16;;;;;;;20.38;10.95;;;16.90;86.80;;;;;;5060196;28;20097;-78
2022/06/26 17:28:42;;;;;;;36.28;21.05;;;16.90;86.80;;;;;;5058620;28;20046;-73
2022/06/26 17:31:09;;;;;;;30.42;17.15;;;16.90;87.40;;;;;;5064208;28;20032;-75